Pritchett, Colorado
Current Conditions -  °F | °C
As of 2:53 AM on Monday 20 Oct 2014 (Local Time) from KLAA Reporting Station
Clear Clear  
Wind Chill: 43°   Ceiling: Unl
Heat Index: 43°   Visibility: 10mi
Dew Point: 40°   Wind: 3mph
Humidity: 89%   Direction: 230°SW
Pressure: 30.1"   Gusts: NA
Location:  37.37°N, 102.86°W
Report Text: KLAA 200853Z AUTO 23003KT 10SM CLR 06/04 A3010 RMK AO2 SLP161 T00610044 52003
Loading
Personal Weather Stations






























Interactive Weather Map
Tropical Storm Tracking
New forecast layout! Learn more

10-Day Weather Forecast

Advertisements
Track Severe Weather on mobile